sensor_id;sensor_type;location;lat;lon;timestamp;temperature;humidity
26224;DHT22;14820;48.682;8.890;2023-04-07T00:00:25;6.20;99.90
26224;DHT22;14820;48.682;8.890;2023-04-07T00:02:51;6.20;99.90
26224;DHT22;14820;48.682;8.890;2023-04-07T00:05:17;6.20;99.90
26224;DHT22;14820;48.682;8.890;2023-04-07T00:07:43;6.20;99.90
26224;DHT22;14820;48.682;8.890;2023-04-07T00:10:09;6.20;99.90
26224;DHT22;14820;48.682;8.890;2023-04-07T00:12:34;6.20;99.90
26224;DHT22;14820;48.682;8.890;2023-04-07T00:15:00;6.10;99.90
26224;DHT22;14820;48.682;8.890;2023-04-07T00:17:26;6.10;99.90
26224;DHT22;14820;48.682;8.890;2023-04-07T00:19:52;6.10;99.90
26224;DHT22;14820;48.682;8.890;2023-04-07T00:22:17;6.10;99.90
26224;DHT22;14820;48.682;8.890;2023-04-07T00:24:43;6.10;99.90
26224;DHT22;14820;48.682;8.890;2023-04-07T00:27:09;6.10;99.90
26224;DHT22;14820;48.682;8.890;2023-04-07T00:29:34;6.00;99.90
26224;DHT22;14820;48.682;8.890;2023-04-07T00:32:00;6.00;99.90
26224;DHT22;14820;48.682;8.890;2023-04-07T00:34:26;6.00;99.90
26224;DHT22;14820;48.682;8.890;2023-04-07T00:36:51;6.00;99.90
26224;DHT22;14820;48.682;8.890;2023-04-07T00:39:18;6.00;99.90
26224;DHT22;14820;48.682;8.890;2023-04-07T00:41:44;6.00;99.90
26224;DHT22;14820;48.682;8.890;2023-04-07T00:44:11;6.00;99.90
26224;DHT22;14820;48.682;8.890;2023-04-07T00:46:37;6.10;99.90
26224;DHT22;14820;48.682;8.890;2023-04-07T00:49:02;6.10;99.90
26224;DHT22;14820;48.682;8.890;2023-04-07T00:51:28;6.00;99.90
26224;DHT22;14820;48.682;8.890;2023-04-07T00:53:54;6.00;99.90
26224;DHT22;14820;48.682;8.890;2023-04-07T00:56:20;6.00;99.90
26224;DHT22;14820;48.682;8.890;2023-04-07T00:58:46;6.00;99.90
26224;DHT22;14820;48.682;8.890;2023-04-07T01:01:20;6.00;99.90
26224;DHT22;14820;48.682;8.890;2023-04-07T01:04:11;6.00;99.90
26224;DHT22;14820;48.682;8.890;2023-04-07T01:06:47;6.10;99.90
26224;DHT22;14820;48.682;8.890;2023-04-07T01:09:29;6.00;99.90
26224;DHT22;14820;48.682;8.890;2023-04-07T01:14:50;6.10;99.90
26224;DHT22;14820;48.682;8.890;2023-04-07T01:17:20;6.10;99.90
26224;DHT22;14820;48.682;8.890;2023-04-07T01:20:02;6.00;99.90
26224;DHT22;14820;48.682;8.890;2023-04-07T01:22:40;6.00;99.90
26224;DHT22;14820;48.682;8.890;2023-04-07T01:28:04;6.00;99.90
26224;DHT22;14820;48.682;8.890;2023-04-07T01:30:38;6.00;99.90
26224;DHT22;14820;48.682;8.890;2023-04-07T01:33:04;6.10;99.90
26224;DHT22;14820;48.682;8.890;2023-04-07T01:35:33;6.10;99.90
26224;DHT22;14820;48.682;8.890;2023-04-07T01:38:00;6.00;99.90
26224;DHT22;14820;48.682;8.890;2023-04-07T01:40:28;6.00;99.90
26224;DHT22;14820;48.682;8.890;2023-04-07T01:42:55;6.00;99.90
26224;DHT22;14820;48.682;8.890;2023-04-07T01:45:22;6.00;99.90
26224;DHT22;14820;48.682;8.890;2023-04-07T01:47:49;6.00;99.90
26224;DHT22;14820;48.682;8.890;2023-04-07T01:50:15;6.00;99.90
26224;DHT22;14820;48.682;8.890;2023-04-07T01:52:42;6.00;99.90
26224;DHT22;14820;48.682;8.890;2023-04-07T01:55:08;6.00;99.90
26224;DHT22;14820;48.682;8.890;2023-04-07T01:57:34;6.00;99.90
26224;DHT22;14820;48.682;8.890;2023-04-07T02:00:00;6.10;99.90
26224;DHT22;14820;48.682;8.890;2023-04-07T02:02:27;6.10;99.90
26224;DHT22;14820;48.682;8.890;2023-04-07T02:04:59;6.00;99.90
26224;DHT22;14820;48.682;8.890;2023-04-07T02:07:38;6.10;99.90
26224;DHT22;14820;48.682;8.890;2023-04-07T02:10:07;6.00;99.90
26224;DHT22;14820;48.682;8.890;2023-04-07T02:12:37;6.10;99.90
26224;DHT22;14820;48.682;8.890;2023-04-07T02:15:06;6.10;99.90
26224;DHT22;14820;48.682;8.890;2023-04-07T02:17:33;6.00;99.90
26224;DHT22;14820;48.682;8.890;2023-04-07T02:20:00;6.00;99.90
26224;DHT22;14820;48.682;8.890;2023-04-07T02:22:27;6.00;99.90
26224;DHT22;14820;48.682;8.890;2023-04-07T02:24:53;6.00;99.90
26224;DHT22;14820;48.682;8.890;2023-04-07T02:27:19;6.00;99.90
26224;DHT22;14820;48.682;8.890;2023-04-07T02:29:45;6.00;99.90
26224;DHT22;14820;48.682;8.890;2023-04-07T02:32:11;6.00;99.90
26224;DHT22;14820;48.682;8.890;2023-04-07T02:34:36;5.90;99.90
26224;DHT22;14820;48.682;8.890;2023-04-07T02:37:02;5.90;99.90
26224;DHT22;14820;48.682;8.890;2023-04-07T02:39:28;5.90;99.90
26224;DHT22;14820;48.682;8.890;2023-04-07T02:41:53;5.90;99.90
26224;DHT22;14820;48.682;8.890;2023-04-07T02:44:19;5.90;99.90
26224;DHT22;14820;48.682;8.890;2023-04-07T02:46:44;5.80;99.90
26224;DHT22;14820;48.682;8.890;2023-04-07T02:49:10;5.80;99.90
26224;DHT22;14820;48.682;8.890;2023-04-07T02:51:36;5.90;99.90
26224;DHT22;14820;48.682;8.890;2023-04-07T02:54:01;5.80;99.90
26224;DHT22;14820;48.682;8.890;2023-04-07T02:56:27;5.80;99.90
26224;DHT22;14820;48.682;8.890;2023-04-07T02:58:52;5.80;99.90
26224;DHT22;14820;48.682;8.890;2023-04-07T03:01:18;5.80;99.90
26224;DHT22;14820;48.682;8.890;2023-04-07T03:03:44;5.80;99.90
26224;DHT22;14820;48.682;8.890;2023-04-07T03:06:12;5.70;99.90
26224;DHT22;14820;48.682;8.890;2023-04-07T03:08:37;5.70;99.90
26224;DHT22;14820;48.682;8.890;2023-04-07T03:11:03;5.70;99.90
26224;DHT22;14820;48.682;8.890;2023-04-07T03:13:29;5.80;99.90
26224;DHT22;14820;48.682;8.890;2023-04-07T03:15:56;5.90;99.90
26224;DHT22;14820;48.682;8.890;2023-04-07T03:18:22;5.80;99.90
26224;DHT22;14820;48.682;8.890;2023-04-07T03:20:48;5.90;99.90
26224;DHT22;14820;48.682;8.890;2023-04-07T03:23:13;5.90;99.90
26224;DHT22;14820;48.682;8.890;2023-04-07T03:25:39;5.90;99.90
26224;DHT22;14820;48.682;8.890;2023-04-07T03:28:05;5.90;99.90
26224;DHT22;14820;48.682;8.890;2023-04-07T03:30:31;5.90;99.90
26224;DHT22;14820;48.682;8.890;2023-04-07T03:32:56;5.90;99.90
26224;DHT22;14820;48.682;8.890;2023-04-07T03:35:22;5.90;99.90
26224;DHT22;14820;48.682;8.890;2023-04-07T03:37:48;5.90;99.90
26224;DHT22;14820;48.682;8.890;2023-04-07T03:40:13;5.90;99.90
26224;DHT22;14820;48.682;8.890;2023-04-07T03:42:39;5.90;99.90
26224;DHT22;14820;48.682;8.890;2023-04-07T03:45:05;5.90;99.90
26224;DHT22;14820;48.682;8.890;2023-04-07T03:47:31;5.90;99.90
26224;DHT22;14820;48.682;8.890;2023-04-07T03:49:57;5.90;99.90
26224;DHT22;14820;48.682;8.890;2023-04-07T03:52:22;5.80;99.90
26224;DHT22;14820;48.682;8.890;2023-04-07T03:54:48;5.80;99.90
26224;DHT22;14820;48.682;8.890;2023-04-07T03:57:13;5.70;99.90
26224;DHT22;14820;48.682;8.890;2023-04-07T03:59:39;5.80;99.90
26224;DHT22;14820;48.682;8.890;2023-04-07T04:02:05;5.80;99.90
26224;DHT22;14820;48.682;8.890;2023-04-07T04:04:31;5.80;99.90
26224;DHT22;14820;48.682;8.890;2023-04-07T04:06:57;5.80;99.90
26224;DHT22;14820;48.682;8.890;2023-04-07T04:09:22;5.80;99.90
26224;DHT22;14820;48.682;8.890;2023-04-07T04:11:48;5.80;99.90
26224;DHT22;14820;48.682;8.890;2023-04-07T04:14:13;5.80;99.90
26224;DHT22;14820;48.682;8.890;2023-04-07T04:16:40;5.80;99.90
26224;DHT22;14820;48.682;8.890;2023-04-07T04:19:05;5.80;99.90
26224;DHT22;14820;48.682;8.890;2023-04-07T04:21:31;5.70;99.90
26224;DHT22;14820;48.682;8.890;2023-04-07T04:23:57;5.70;99.90
26224;DHT22;14820;48.682;8.890;2023-04-07T04:26:22;5.70;99.90
26224;DHT22;14820;48.682;8.890;2023-04-07T04:28:50;5.70;99.90
26224;DHT22;14820;48.682;8.890;2023-04-07T04:31:16;5.70;99.90
26224;DHT22;14820;48.682;8.890;2023-04-07T04:33:42;5.70;99.90
26224;DHT22;14820;48.682;8.890;2023-04-07T04:36:07;5.70;99.90
26224;DHT22;14820;48.682;8.890;2023-04-07T04:38:33;5.70;99.90
26224;DHT22;14820;48.682;8.890;2023-04-07T04:40:59;5.70;99.90
26224;DHT22;14820;48.682;8.890;2023-04-07T04:43:24;5.70;99.90
26224;DHT22;14820;48.682;8.890;2023-04-07T04:45:50;5.70;99.90
26224;DHT22;14820;48.682;8.890;2023-04-07T04:48:16;5.70;99.90
26224;DHT22;14820;48.682;8.890;2023-04-07T04:50:42;5.70;99.90
26224;DHT22;14820;48.682;8.890;2023-04-07T04:53:08;5.80;99.90
26224;DHT22;14820;48.682;8.890;2023-04-07T04:55:35;5.70;99.90
26224;DHT22;14820;48.682;8.890;2023-04-07T04:58:00;5.70;99.90
26224;DHT22;14820;48.682;8.890;2023-04-07T05:00:26;5.70;99.90
26224;DHT22;14820;48.682;8.890;2023-04-07T05:02:52;5.60;99.90
26224;DHT22;14820;48.682;8.890;2023-04-07T05:05:18;5.70;99.90
26224;DHT22;14820;48.682;8.890;2023-04-07T05:07:43;5.60;99.90
26224;DHT22;14820;48.682;8.890;2023-04-07T05:10:09;5.70;99.90
26224;DHT22;14820;48.682;8.890;2023-04-07T05:12:35;5.70;99.90
26224;DHT22;14820;48.682;8.890;2023-04-07T05:15:01;5.70;99.90
26224;DHT22;14820;48.682;8.890;2023-04-07T05:17:26;5.70;99.90
26224;DHT22;14820;48.682;8.890;2023-04-07T05:19:52;5.70;99.90
26224;DHT22;14820;48.682;8.890;2023-04-07T05:22:18;5.80;99.90
26224;DHT22;14820;48.682;8.890;2023-04-07T05:24:43;5.80;99.90
26224;DHT22;14820;48.682;8.890;2023-04-07T05:27:09;5.80;99.90
26224;DHT22;14820;48.682;8.890;2023-04-07T05:29:34;5.80;99.90
26224;DHT22;14820;48.682;8.890;2023-04-07T05:32:00;5.80;99.90
26224;DHT22;14820;48.682;8.890;2023-04-07T05:34:26;5.80;99.90
26224;DHT22;14820;48.682;8.890;2023-04-07T05:36:52;5.80;99.90
26224;DHT22;14820;48.682;8.890;2023-04-07T05:39:18;5.70;99.90
26224;DHT22;14820;48.682;8.890;2023-04-07T05:41:44;5.80;99.90
26224;DHT22;14820;48.682;8.890;2023-04-07T05:44:09;5.80;99.90
26224;DHT22;14820;48.682;8.890;2023-04-07T05:46:35;5.80;99.90
26224;DHT22;14820;48.682;8.890;2023-04-07T05:49:00;5.90;99.90
26224;DHT22;14820;48.682;8.890;2023-04-07T05:51:26;5.90;99.90
26224;DHT22;14820;48.682;8.890;2023-04-07T05:53:52;5.90;99.90
26224;DHT22;14820;48.682;8.890;2023-04-07T05:56:18;5.90;99.90
26224;DHT22;14820;48.682;8.890;2023-04-07T05:58:43;5.90;99.90
26224;DHT22;14820;48.682;8.890;2023-04-07T06:01:09;5.90;99.90
26224;DHT22;14820;48.682;8.890;2023-04-07T06:03:34;5.80;99.90
26224;DHT22;14820;48.682;8.890;2023-04-07T06:06:00;5.80;99.90
26224;DHT22;14820;48.682;8.890;2023-04-07T06:08:26;5.90;99.90
26224;DHT22;14820;48.682;8.890;2023-04-07T06:10:51;5.90;99.90
26224;DHT22;14820;48.682;8.890;2023-04-07T06:13:17;6.00;99.90
26224;DHT22;14820;48.682;8.890;2023-04-07T06:15:43;5.90;99.90
26224;DHT22;14820;48.682;8.890;2023-04-07T06:18:08;5.90;99.90
26224;DHT22;14820;48.682;8.890;2023-04-07T06:20:34;6.00;99.90
26224;DHT22;14820;48.682;8.890;2023-04-07T06:23:00;6.10;99.90
26224;DHT22;14820;48.682;8.890;2023-04-07T06:25:26;6.10;99.90
26224;DHT22;14820;48.682;8.890;2023-04-07T06:27:53;6.20;99.90
26224;DHT22;14820;48.682;8.890;2023-04-07T06:30:19;6.20;99.90
26224;DHT22;14820;48.682;8.890;2023-04-07T06:32:44;6.20;99.90
26224;DHT22;14820;48.682;8.890;2023-04-07T06:35:11;6.20;99.90
26224;DHT22;14820;48.682;8.890;2023-04-07T06:37:36;6.20;99.90
26224;DHT22;14820;48.682;8.890;2023-04-07T06:40:04;6.30;99.90
26224;DHT22;14820;48.682;8.890;2023-04-07T06:42:30;6.30;99.90
26224;DHT22;14820;48.682;8.890;2023-04-07T06:44:56;6.30;99.90
26224;DHT22;14820;48.682;8.890;2023-04-07T06:47:21;6.40;99.90
26224;DHT22;14820;48.682;8.890;2023-04-07T06:49:47;6.50;99.90
26224;DHT22;14820;48.682;8.890;2023-04-07T06:52:13;6.60;99.90
26224;DHT22;14820;48.682;8.890;2023-04-07T06:54:38;6.70;99.90
26224;DHT22;14820;48.682;8.890;2023-04-07T06:57:04;6.70;99.90
26224;DHT22;14820;48.682;8.890;2023-04-07T06:59:38;6.70;99.90
26224;DHT22;14820;48.682;8.890;2023-04-07T07:02:04;6.70;99.90
26224;DHT22;14820;48.682;8.890;2023-04-07T07:04:32;6.70;99.90
26224;DHT22;14820;48.682;8.890;2023-04-07T07:06:58;6.80;99.90
26224;DHT22;14820;48.682;8.890;2023-04-07T07:09:24;6.80;99.90
26224;DHT22;14820;48.682;8.890;2023-04-07T07:11:50;7.00;99.90
26224;DHT22;14820;48.682;8.890;2023-04-07T07:14:16;6.90;99.90
26224;DHT22;14820;48.682;8.890;2023-04-07T07:16:42;6.90;99.90
26224;DHT22;14820;48.682;8.890;2023-04-07T07:21:34;7.00;99.90
26224;DHT22;14820;48.682;8.890;2023-04-07T07:24:00;7.00;99.90
26224;DHT22;14820;48.682;8.890;2023-04-07T07:26:26;7.10;99.90
26224;DHT22;14820;48.682;8.890;2023-04-07T07:28:51;7.20;99.90
26224;DHT22;14820;48.682;8.890;2023-04-07T07:31:17;7.20;99.90
26224;DHT22;14820;48.682;8.890;2023-04-07T07:33:43;7.30;99.90
26224;DHT22;14820;48.682;8.890;2023-04-07T07:36:11;7.40;99.90
26224;DHT22;14820;48.682;8.890;2023-04-07T07:38:37;7.50;99.90
26224;DHT22;14820;48.682;8.890;2023-04-07T07:41:03;7.70;99.90
26224;DHT22;14820;48.682;8.890;2023-04-07T07:43:28;7.80;99.90
26224;DHT22;14820;48.682;8.890;2023-04-07T07:45:54;7.90;99.90
26224;DHT22;14820;48.682;8.890;2023-04-07T07:48:20;8.00;99.90
26224;DHT22;14820;48.682;8.890;2023-04-07T07:50:46;8.00;99.90
26224;DHT22;14820;48.682;8.890;2023-04-07T07:55:38;8.40;99.90
26224;DHT22;14820;48.682;8.890;2023-04-07T08:00:30;8.50;99.90
26224;DHT22;14820;48.682;8.890;2023-04-07T08:02:56;8.50;99.90
26224;DHT22;14820;48.682;8.890;2023-04-07T08:05:21;8.60;99.90
26224;DHT22;14820;48.682;8.890;2023-04-07T08:07:47;9.20;99.90
26224;DHT22;14820;48.682;8.890;2023-04-07T08:10:13;9.00;99.90
26224;DHT22;14820;48.682;8.890;2023-04-07T08:12:39;9.20;99.90
26224;DHT22;14820;48.682;8.890;2023-04-07T08:15:05;9.30;99.90
26224;DHT22;14820;48.682;8.890;2023-04-07T08:17:35;9.30;99.90
26224;DHT22;14820;48.682;8.890;2023-04-07T08:20:01;9.30;99.90
26224;DHT22;14820;48.682;8.890;2023-04-07T08:22:26;9.30;99.90
26224;DHT22;14820;48.682;8.890;2023-04-07T08:24:52;9.30;99.90
26224;DHT22;14820;48.682;8.890;2023-04-07T08:27:17;9.40;99.90
26224;DHT22;14820;48.682;8.890;2023-04-07T08:29:43;9.50;99.90
26224;DHT22;14820;48.682;8.890;2023-04-07T08:32:09;9.50;99.90
26224;DHT22;14820;48.682;8.890;2023-04-07T08:34:35;9.50;99.90
26224;DHT22;14820;48.682;8.890;2023-04-07T08:37:00;9.60;99.90
26224;DHT22;14820;48.682;8.890;2023-04-07T08:39:27;9.60;99.90
26224;DHT22;14820;48.682;8.890;2023-04-07T08:41:54;9.80;99.90
26224;DHT22;14820;48.682;8.890;2023-04-07T08:44:22;9.80;99.90
26224;DHT22;14820;48.682;8.890;2023-04-07T08:46:50;9.70;99.90
26224;DHT22;14820;48.682;8.890;2023-04-07T08:49:18;9.70;99.90
26224;DHT22;14820;48.682;8.890;2023-04-07T08:51:46;9.70;99.90
26224;DHT22;14820;48.682;8.890;2023-04-07T08:54:15;9.70;99.90
26224;DHT22;14820;48.682;8.890;2023-04-07T08:56:43;9.80;99.90
26224;DHT22;14820;48.682;8.890;2023-04-07T08:59:11;9.70;99.90
26224;DHT22;14820;48.682;8.890;2023-04-07T09:01:38;9.80;99.90
26224;DHT22;14820;48.682;8.890;2023-04-07T09:04:06;9.80;99.90
26224;DHT22;14820;48.682;8.890;2023-04-07T09:06:33;9.90;99.90
26224;DHT22;14820;48.682;8.890;2023-04-07T09:09:00;9.90;99.90
26224;DHT22;14820;48.682;8.890;2023-04-07T09:11:26;9.80;99.90
26224;DHT22;14820;48.682;8.890;2023-04-07T09:13:53;9.80;99.90
26224;DHT22;14820;48.682;8.890;2023-04-07T09:16:19;9.80;99.90
26224;DHT22;14820;48.682;8.890;2023-04-07T09:18:45;9.90;99.90
26224;DHT22;14820;48.682;8.890;2023-04-07T09:21:11;10.00;99.90
26224;DHT22;14820;48.682;8.890;2023-04-07T09:23:38;10.10;99.90
26224;DHT22;14820;48.682;8.890;2023-04-07T09:26:25;10.20;99.90
26224;DHT22;14820;48.682;8.890;2023-04-07T09:28:57;10.20;99.90
26224;DHT22;14820;48.682;8.890;2023-04-07T09:31:48;10.30;99.90
26224;DHT22;14820;48.682;8.890;2023-04-07T09:36:54;10.20;99.90
26224;DHT22;14820;48.682;8.890;2023-04-07T09:39:21;10.20;99.90
26224;DHT22;14820;48.682;8.890;2023-04-07T09:41:46;10.20;99.90
26224;DHT22;14820;48.682;8.890;2023-04-07T09:44:12;10.20;99.90
26224;DHT22;14820;48.682;8.890;2023-04-07T09:46:51;10.10;99.90
26224;DHT22;14820;48.682;8.890;2023-04-07T09:49:17;10.10;99.90
26224;DHT22;14820;48.682;8.890;2023-04-07T09:51:58;10.10;99.90
26224;DHT22;14820;48.682;8.890;2023-04-07T09:54:31;10.00;99.90
26224;DHT22;14820;48.682;8.890;2023-04-07T09:57:01;9.90;99.90
26224;DHT22;14820;48.682;8.890;2023-04-07T09:59:29;9.90;99.90
26224;DHT22;14820;48.682;8.890;2023-04-07T10:01:55;9.90;99.90
26224;DHT22;14820;48.682;8.890;2023-04-07T10:04:21;9.90;99.90
26224;DHT22;14820;48.682;8.890;2023-04-07T10:06:47;9.80;99.90
26224;DHT22;14820;48.682;8.890;2023-04-07T10:09:13;9.80;99.90
26224;DHT22;14820;48.682;8.890;2023-04-07T10:11:40;9.70;99.90
26224;DHT22;14820;48.682;8.890;2023-04-07T10:14:08;9.70;99.90
26224;DHT22;14820;48.682;8.890;2023-04-07T10:16:36;9.60;99.90
26224;DHT22;14820;48.682;8.890;2023-04-07T10:19:02;9.60;99.90
26224;DHT22;14820;48.682;8.890;2023-04-07T10:21:28;9.60;99.90
26224;DHT22;14820;48.682;8.890;2023-04-07T10:24:02;9.60;99.90
26224;DHT22;14820;48.682;8.890;2023-04-07T10:26:31;9.60;99.90
26224;DHT22;14820;48.682;8.890;2023-04-07T10:29:03;9.60;99.90
26224;DHT22;14820;48.682;8.890;2023-04-07T10:31:31;9.60;99.90
26224;DHT22;14820;48.682;8.890;2023-04-07T10:33:57;9.60;99.90
26224;DHT22;14820;48.682;8.890;2023-04-07T10:36:23;9.70;99.90
26224;DHT22;14820;48.682;8.890;2023-04-07T10:41:43;9.60;99.90
26224;DHT22;14820;48.682;8.890;2023-04-07T10:44:09;9.70;99.90
26224;DHT22;14820;48.682;8.890;2023-04-07T10:47:02;9.80;99.90
26224;DHT22;14820;48.682;8.890;2023-04-07T10:49:28;9.80;99.90
26224;DHT22;14820;48.682;8.890;2023-04-07T10:54:39;10.00;99.90
26224;DHT22;14820;48.682;8.890;2023-04-07T10:57:07;10.00;99.90
26224;DHT22;14820;48.682;8.890;2023-04-07T10:59:35;10.10;99.90
26224;DHT22;14820;48.682;8.890;2023-04-07T11:04:45;10.30;99.90
26224;DHT22;14820;48.682;8.890;2023-04-07T11:09:39;10.60;99.90
26224;DHT22;14820;48.682;8.890;2023-04-07T11:12:06;10.70;99.90
26224;DHT22;14820;48.682;8.890;2023-04-07T11:14:32;10.80;99.90
26224;DHT22;14820;48.682;8.890;2023-04-07T11:16:59;10.80;99.90
26224;DHT22;14820;48.682;8.890;2023-04-07T11:19:26;10.80;99.90
26224;DHT22;14820;48.682;8.890;2023-04-07T11:22:17;10.80;99.90
26224;DHT22;14820;48.682;8.890;2023-04-07T11:24:45;10.70;99.90
26224;DHT22;14820;48.682;8.890;2023-04-07T11:27:12;10.70;99.90
26224;DHT22;14820;48.682;8.890;2023-04-07T11:29:38;10.70;99.90
26224;DHT22;14820;48.682;8.890;2023-04-07T11:32:04;10.60;99.90
26224;DHT22;14820;48.682;8.890;2023-04-07T11:34:32;10.50;99.90
26224;DHT22;14820;48.682;8.890;2023-04-07T11:37:18;10.40;99.90
26224;DHT22;14820;48.682;8.890;2023-04-07T11:39:53;10.30;99.90
26224;DHT22;14820;48.682;8.890;2023-04-07T11:47:42;10.00;99.90
26224;DHT22;14820;48.682;8.890;2023-04-07T11:50:07;9.70;99.90
26224;DHT22;14820;48.682;8.890;2023-04-07T11:52:44;9.60;99.90
26224;DHT22;14820;48.682;8.890;2023-04-07T11:55:22;9.60;99.90
26224;DHT22;14820;48.682;8.890;2023-04-07T11:57:51;9.50;99.90
26224;DHT22;14820;48.682;8.890;2023-04-07T12:00:17;9.40;99.90
26224;DHT22;14820;48.682;8.890;2023-04-07T12:02:43;9.40;99.90
26224;DHT22;14820;48.682;8.890;2023-04-07T12:05:09;9.30;99.90
26224;DHT22;14820;48.682;8.890;2023-04-07T12:07:36;9.20;99.90
26224;DHT22;14820;48.682;8.890;2023-04-07T12:10:22;9.20;99.90
26224;DHT22;14820;48.682;8.890;2023-04-07T12:12:50;9.20;99.90
26224;DHT22;14820;48.682;8.890;2023-04-07T12:15:16;9.20;99.90
26224;DHT22;14820;48.682;8.890;2023-04-07T12:17:46;9.20;99.90
26224;DHT22;14820;48.682;8.890;2023-04-07T12:20:13;9.20;99.90
26224;DHT22;14820;48.682;8.890;2023-04-07T12:22:39;9.20;99.90
26224;DHT22;14820;48.682;8.890;2023-04-07T12:25:05;9.20;99.90
26224;DHT22;14820;48.682;8.890;2023-04-07T12:27:31;9.20;99.90
26224;DHT22;14820;48.682;8.890;2023-04-07T12:29:57;9.20;99.90
26224;DHT22;14820;48.682;8.890;2023-04-07T12:32:22;9.10;99.90
26224;DHT22;14820;48.682;8.890;2023-04-07T12:34:48;9.10;99.90
26224;DHT22;14820;48.682;8.890;2023-04-07T12:37:13;9.10;99.90
26224;DHT22;14820;48.682;8.890;2023-04-07T12:39:39;9.10;99.90
26224;DHT22;14820;48.682;8.890;2023-04-07T12:42:05;9.00;99.90
26224;DHT22;14820;48.682;8.890;2023-04-07T12:44:32;9.00;99.90
26224;DHT22;14820;48.682;8.890;2023-04-07T12:46:58;9.00;99.90
26224;DHT22;14820;48.682;8.890;2023-04-07T12:49:23;8.90;99.90
26224;DHT22;14820;48.682;8.890;2023-04-07T12:51:49;8.90;99.90
26224;DHT22;14820;48.682;8.890;2023-04-07T12:54:16;8.90;99.90
26224;DHT22;14820;48.682;8.890;2023-04-07T12:56:41;8.90;99.90
26224;DHT22;14820;48.682;8.890;2023-04-07T12:59:07;8.90;99.90
26224;DHT22;14820;48.682;8.890;2023-04-07T13:01:33;8.90;99.90
26224;DHT22;14820;48.682;8.890;2023-04-07T13:04:00;8.90;99.90
26224;DHT22;14820;48.682;8.890;2023-04-07T13:06:26;8.90;99.90
26224;DHT22;14820;48.682;8.890;2023-04-07T13:08:52;8.90;99.90
26224;DHT22;14820;48.682;8.890;2023-04-07T13:11:17;8.90;99.90
26224;DHT22;14820;48.682;8.890;2023-04-07T13:13:43;8.90;99.90
26224;DHT22;14820;48.682;8.890;2023-04-07T13:16:09;8.90;99.90
26224;DHT22;14820;48.682;8.890;2023-04-07T13:18:34;8.90;99.90
26224;DHT22;14820;48.682;8.890;2023-04-07T13:21:01;8.90;99.90
26224;DHT22;14820;48.682;8.890;2023-04-07T13:23:27;8.90;99.90
26224;DHT22;14820;48.682;8.890;2023-04-07T13:25:53;8.90;99.90
26224;DHT22;14820;48.682;8.890;2023-04-07T13:28:18;8.90;99.90
26224;DHT22;14820;48.682;8.890;2023-04-07T13:30:45;8.90;99.90
26224;DHT22;14820;48.682;8.890;2023-04-07T13:33:11;8.90;99.90
26224;DHT22;14820;48.682;8.890;2023-04-07T13:35:37;8.90;99.90
26224;DHT22;14820;48.682;8.890;2023-04-07T13:38:03;8.80;99.90
26224;DHT22;14820;48.682;8.890;2023-04-07T13:40:29;8.80;99.90
26224;DHT22;14820;48.682;8.890;2023-04-07T13:42:55;8.80;99.90
26224;DHT22;14820;48.682;8.890;2023-04-07T13:45:22;8.80;99.90
26224;DHT22;14820;48.682;8.890;2023-04-07T13:47:47;8.80;99.90
26224;DHT22;14820;48.682;8.890;2023-04-07T13:50:13;8.90;99.90
26224;DHT22;14820;48.682;8.890;2023-04-07T13:52:39;8.80;99.90
26224;DHT22;14820;48.682;8.890;2023-04-07T13:55:05;8.80;99.90
26224;DHT22;14820;48.682;8.890;2023-04-07T13:57:31;8.80;99.90
26224;DHT22;14820;48.682;8.890;2023-04-07T13:59:57;8.80;99.90
26224;DHT22;14820;48.682;8.890;2023-04-07T14:02:23;8.90;99.90
26224;DHT22;14820;48.682;8.890;2023-04-07T14:04:49;8.90;99.90
26224;DHT22;14820;48.682;8.890;2023-04-07T14:07:15;8.90;99.90
26224;DHT22;14820;48.682;8.890;2023-04-07T14:09:40;8.90;99.90
26224;DHT22;14820;48.682;8.890;2023-04-07T14:12:07;8.90;99.90
26224;DHT22;14820;48.682;8.890;2023-04-07T14:14:33;8.90;99.90
26224;DHT22;14820;48.682;8.890;2023-04-07T14:16:59;9.00;99.90
26224;DHT22;14820;48.682;8.890;2023-04-07T14:19:24;9.00;99.90
26224;DHT22;14820;48.682;8.890;2023-04-07T14:21:50;9.00;99.90
26224;DHT22;14820;48.682;8.890;2023-04-07T14:24:16;9.00;99.90
26224;DHT22;14820;48.682;8.890;2023-04-07T14:26:43;9.10;99.90
26224;DHT22;14820;48.682;8.890;2023-04-07T14:29:10;9.10;99.90
26224;DHT22;14820;48.682;8.890;2023-04-07T14:31:36;9.10;99.90
26224;DHT22;14820;48.682;8.890;2023-04-07T14:34:02;9.10;99.90
26224;DHT22;14820;48.682;8.890;2023-04-07T14:36:28;9.10;99.90
26224;DHT22;14820;48.682;8.890;2023-04-07T14:38:54;9.20;99.90
26224;DHT22;14820;48.682;8.890;2023-04-07T14:41:21;9.20;99.90
26224;DHT22;14820;48.682;8.890;2023-04-07T14:43:47;9.20;99.90
26224;DHT22;14820;48.682;8.890;2023-04-07T14:46:16;9.20;99.90
26224;DHT22;14820;48.682;8.890;2023-04-07T14:48:43;9.20;99.90
26224;DHT22;14820;48.682;8.890;2023-04-07T14:51:10;9.20;99.90
26224;DHT22;14820;48.682;8.890;2023-04-07T14:53:37;9.20;99.90
26224;DHT22;14820;48.682;8.890;2023-04-07T14:56:06;9.20;99.90
26224;DHT22;14820;48.682;8.890;2023-04-07T14:58:32;9.20;99.90
26224;DHT22;14820;48.682;8.890;2023-04-07T15:00:58;9.20;99.90
26224;DHT22;14820;48.682;8.890;2023-04-07T15:03:23;9.20;99.90
26224;DHT22;14820;48.682;8.890;2023-04-07T15:05:49;9.20;99.90
26224;DHT22;14820;48.682;8.890;2023-04-07T15:08:15;9.20;99.90
26224;DHT22;14820;48.682;8.890;2023-04-07T15:10:43;9.20;99.90
26224;DHT22;14820;48.682;8.890;2023-04-07T15:13:08;9.20;99.90
26224;DHT22;14820;48.682;8.890;2023-04-07T15:15:34;9.20;99.90
26224;DHT22;14820;48.682;8.890;2023-04-07T15:18:00;9.20;99.90
26224;DHT22;14820;48.682;8.890;2023-04-07T15:20:25;9.20;99.90
26224;DHT22;14820;48.682;8.890;2023-04-07T15:22:51;9.20;99.90
26224;DHT22;14820;48.682;8.890;2023-04-07T15:25:17;9.20;99.90
26224;DHT22;14820;48.682;8.890;2023-04-07T15:27:42;9.20;99.90
26224;DHT22;14820;48.682;8.890;2023-04-07T15:30:08;9.10;99.90
26224;DHT22;14820;48.682;8.890;2023-04-07T15:32:34;9.10;99.90
26224;DHT22;14820;48.682;8.890;2023-04-07T15:35:00;9.00;99.90
26224;DHT22;14820;48.682;8.890;2023-04-07T15:37:25;9.00;99.90
26224;DHT22;14820;48.682;8.890;2023-04-07T15:39:51;8.90;99.90
26224;DHT22;14820;48.682;8.890;2023-04-07T15:42:17;8.90;99.90
26224;DHT22;14820;48.682;8.890;2023-04-07T15:44:42;8.90;99.90
26224;DHT22;14820;48.682;8.890;2023-04-07T15:47:08;8.90;99.90
26224;DHT22;14820;48.682;8.890;2023-04-07T15:49:34;8.90;99.90
26224;DHT22;14820;48.682;8.890;2023-04-07T15:52:03;8.90;99.90
26224;DHT22;14820;48.682;8.890;2023-04-07T15:54:30;8.90;99.90
26224;DHT22;14820;48.682;8.890;2023-04-07T15:56:55;8.80;99.90
26224;DHT22;14820;48.682;8.890;2023-04-07T15:59:21;8.80;99.90
26224;DHT22;14820;48.682;8.890;2023-04-07T16:01:47;8.80;99.90
26224;DHT22;14820;48.682;8.890;2023-04-07T16:04:12;8.80;99.90
26224;DHT22;14820;48.682;8.890;2023-04-07T16:06:38;8.80;99.90
26224;DHT22;14820;48.682;8.890;2023-04-07T16:09:04;8.90;99.90
26224;DHT22;14820;48.682;8.890;2023-04-07T16:11:29;8.90;99.90
26224;DHT22;14820;48.682;8.890;2023-04-07T16:13:55;8.80;99.90